IBE564 LPFR-LEIB
Flight info
| Callsign | IBE564 |
|---|---|
| Flight time | 1h 19m |
| Altitude | 19000 |
| Route | TUPIX Y135 NAPES/N0438F340 DCT ONUBA DCT PIMUR DCT SVL DCT AMOTA DCT VULPE DCT ALCOL N747 TOSTO DCT OLPOS DCT BEGOX DCT LASPO/N0432F320 Z224 VARUT |
| Aircraft | MD80/M-SDFGIRWY/C |
Departure
| Time | 2026-05-04 18:59 |
|---|---|
| Airport | Faro - Gago Coutinho International Airport (LPFR) |
Arrival
| Time | 2026-05-04 20:18 |
|---|---|
| Airport | Ibiza Airport (LEIB) |
| Time | Latitude | Longitude | Altitude | Speed | Heading |
|---|---|---|---|---|---|
| 2026-05-04 18:30 | 37.01755 | -7.97027 | 23 ft | 0 kts | 160° |
| 2026-05-04 18:49 | 37.01760 | -7.97030 | 22 ft | 2 kts | 160° |
| 2026-05-04 18:49 | 37.01774 | -7.97036 | 22 ft | 2 kts | 160° |
| 2026-05-04 18:49 | 37.01786 | -7.97042 | 23 ft | 0 kts | 160° |
| 2026-05-04 18:50 | 37.01797 | -7.97047 | 23 ft | 2 kts | 144° |
| 2026-05-04 18:50 | 37.01806 | -7.97061 | 23 ft | 2 kts | 118° |
| 2026-05-04 18:50 | 37.01810 | -7.97073 | 23 ft | 0 kts | 102° |
| 2026-05-04 18:50 | 37.01811 | -7.97082 | 23 ft | 0 kts | 99° |
| 2026-05-04 18:53 | 37.01810 | -7.97077 | 23 ft | 1 kts | 100° |
| 2026-05-04 18:54 | 37.01808 | -7.97060 | 23 ft | 4 kts | 101° |
| 2026-05-04 18:54 | 37.01799 | -7.97003 | 23 ft | 9 kts | 99° |
| 2026-05-04 18:54 | 37.01783 | -7.96915 | 23 ft | 11 kts | 126° |
| 2026-05-04 18:54 | 37.01709 | -7.96909 | 22 ft | 13 kts | 180° |
| 2026-05-04 18:55 | 37.01658 | -7.96816 | 22 ft | 16 kts | 100° |
| 2026-05-04 18:55 | 37.01605 | -7.96445 | 21 ft | 26 kts | 100° |
| 2026-05-04 18:55 | 37.01571 | -7.96210 | 20 ft | 26 kts | 100° |
| 2026-05-04 18:56 | 37.01541 | -7.95995 | 20 ft | 17 kts | 101° |
| 2026-05-04 18:56 | 37.01518 | -7.95875 | 19 ft | 10 kts | 127° |
| 2026-05-04 18:56 | 37.01462 | -7.95843 | 19 ft | 7 kts | 184° |
| 2026-05-04 18:56 | 37.01441 | -7.95846 | 19 ft | 0 kts | 190° |
| 2026-05-04 18:57 | 37.01436 | -7.95847 | 19 ft | 1 kts | 190° |
| 2026-05-04 18:57 | 37.01412 | -7.95852 | 19 ft | 6 kts | 189° |
| 2026-05-04 18:57 | 37.01358 | -7.95870 | 19 ft | 7 kts | 218° |
| 2026-05-04 18:58 | 37.01351 | -7.95954 | 19 ft | 12 kts | 283° |
| 2026-05-04 18:58 | 37.01375 | -7.96118 | 20 ft | 38 kts | 280° |
| 2026-05-04 18:58 | 37.01461 | -7.96725 | 21 ft | 101 kts | 280° |
| 2026-05-04 18:58 | 37.01620 | -7.97811 | 107 ft | 149 kts | 287° |
| 2026-05-04 18:59 | 37.01856 | -7.99064 | 927 ft | 155 kts | 289° |
| 2026-05-04 18:59 | 37.02158 | -8.00299 | 1890 ft | 149 kts | 288° |
| 2026-05-04 18:59 | 37.02352 | -8.01451 | 2746 ft | 132 kts | 285° |
| 2026-05-04 18:59 | 37.02504 | -8.02678 | 3053 ft | 154 kts | 284° |
| 2026-05-04 19:00 | 37.02677 | -8.03940 | 3761 ft | 145 kts | 283° |
| 2026-05-04 19:00 | 37.02818 | -8.05182 | 4251 ft | 151 kts | 283° |
| 2026-05-04 19:00 | 37.03008 | -8.06617 | 4357 ft | 182 kts | 280° |
| 2026-05-04 19:00 | 37.02694 | -8.08264 | 4407 ft | 221 kts | 243° |
| 2026-05-04 19:01 | 37.01664 | -8.09957 | 4405 ft | 267 kts | 221° |
| 2026-05-04 19:01 | 36.99944 | -8.10901 | 5166 ft | 278 kts | 189° |
| 2026-05-04 19:01 | 36.98033 | -8.10736 | 6191 ft | 277 kts | 168° |
| 2026-05-04 19:01 | 36.96142 | -8.10353 | 7032 ft | 281 kts | 174° |
| 2026-05-04 19:02 | 36.94185 | -8.10111 | 7865 ft | 285 kts | 178° |
| 2026-05-04 19:02 | 36.92220 | -8.09991 | 8682 ft | 288 kts | 181° |
| 2026-05-04 19:02 | 36.90218 | -8.09912 | 9480 ft | 294 kts | 174° |
| 2026-05-04 19:02 | 36.88269 | -8.09070 | 10253 ft | 305 kts | 154° |
| 2026-05-04 19:03 | 36.86518 | -8.07343 | 10397 ft | 340 kts | 131° |
| 2026-05-04 19:03 | 36.85332 | -8.04683 | 10708 ft | 363 kts | 107° |
| 2026-05-04 19:03 | 36.84998 | -8.01582 | 11566 ft | 365 kts | 90° |
| 2026-05-04 19:03 | 36.84853 | -7.98372 | 12266 ft | 372 kts | 93° |
| 2026-05-04 19:04 | 36.84638 | -7.95172 | 12971 ft | 378 kts | 95° |
| 2026-05-04 19:04 | 36.84365 | -7.91904 | 13684 ft | 382 kts | 96° |
| 2026-05-04 19:04 | 36.84050 | -7.88598 | 14397 ft | 389 kts | 97° |
| 2026-05-04 19:04 | 36.83702 | -7.85246 | 15231 ft | 390 kts | 97° |
| 2026-05-04 19:05 | 36.83335 | -7.81919 | 15862 ft | 396 kts | 98° |
| 2026-05-04 19:05 | 36.82942 | -7.78479 | 16553 ft | 400 kts | 98° |
| 2026-05-04 19:05 | 36.82540 | -7.75050 | 17166 ft | 405 kts | 98° |
| 2026-05-04 19:05 | 36.82182 | -7.71581 | 17828 ft | 409 kts | 91° |
| 2026-05-04 19:06 | 36.82583 | -7.68064 | 18370 ft | 412 kts | 70° |
| 2026-05-04 19:06 | 36.83864 | -7.64907 | 18998 ft | 409 kts | 50° |
| 2026-05-04 19:06 | 36.85847 | -7.62432 | 19543 ft | 405 kts | 32° |
| 2026-05-04 19:06 | 36.88080 | -7.60284 | 20160 ft | 409 kts | 34° |
| 2026-05-04 19:07 | 36.90284 | -7.58023 | 20681 ft | 415 kts | 36° |
| 2026-05-04 19:07 | 36.92504 | -7.55644 | 21250 ft | 420 kts | 36° |
| 2026-05-04 19:07 | 36.94687 | -7.53234 | 21843 ft | 422 kts | 37° |
| 2026-05-04 19:07 | 36.96881 | -7.50762 | 22339 ft | 428 kts | 37° |
| 2026-05-04 19:08 | 36.99093 | -7.48236 | 22857 ft | 432 kts | 37° |
| 2026-05-04 19:08 | 37.01284 | -7.45708 | 23392 ft | 435 kts | 38° |
| 2026-05-04 19:08 | 37.03530 | -7.43100 | 23897 ft | 439 kts | 38° |
| 2026-05-04 19:08 | 37.05747 | -7.40515 | 24427 ft | 442 kts | 38° |
| 2026-05-04 19:09 | 37.08001 | -7.37882 | 24903 ft | 446 kts | 37° |
| 2026-05-04 19:09 | 37.10066 | -7.34948 | 25377 ft | 457 kts | 52° |
| 2026-05-04 19:09 | 37.11572 | -7.31383 | 25751 ft | 469 kts | 68° |
| 2026-05-04 19:09 | 37.12587 | -7.27529 | 26209 ft | 472 kts | 69° |
| 2026-05-04 19:10 | 37.13657 | -7.23612 | 26673 ft | 475 kts | 68° |
| 2026-05-04 19:10 | 37.14769 | -7.19675 | 27060 ft | 480 kts | 68° |
| 2026-05-04 19:10 | 37.15902 | -7.15744 | 27504 ft | 483 kts | 68° |
| 2026-05-04 19:10 | 37.17042 | -7.11833 | 27893 ft | 487 kts | 67° |
| 2026-05-04 19:11 | 37.18220 | -7.07837 | 28341 ft | 490 kts | 67° |
| 2026-05-04 19:11 | 37.19363 | -7.03797 | 28752 ft | 494 kts | 69° |
| 2026-05-04 19:11 | 37.20358 | -6.99647 | 29079 ft | 500 kts | 72° |
| 2026-05-04 19:11 | 37.21153 | -6.95448 | 29570 ft | 501 kts | 76° |
| 2026-05-04 19:12 | 37.21923 | -6.91138 | 30010 ft | 502 kts | 76° |
| 2026-05-04 19:12 | 37.23474 | -6.82615 | 31046 ft | 501 kts | 75° |
| 2026-05-04 19:12 | 37.24264 | -6.78338 | 31464 ft | 502 kts | 75° |
| 2026-05-04 19:13 | 37.25049 | -6.74123 | 31989 ft | 500 kts | 75° |
| 2026-05-04 19:13 | 37.25835 | -6.69878 | 32415 ft | 501 kts | 75° |
| 2026-05-04 19:13 | 37.26614 | -6.65646 | 32849 ft | 500 kts | 75° |
| 2026-05-04 19:13 | 37.27392 | -6.61422 | 33247 ft | 501 kts | 75° |
| 2026-05-04 19:14 | 37.28173 | -6.57171 | 33671 ft | 500 kts | 75° |
| 2026-05-04 19:14 | 37.28954 | -6.52940 | 34018 ft | 497 kts | 75° |
| 2026-05-04 19:14 | 37.29728 | -6.48725 | 34018 ft | 491 kts | 75° |
| 2026-05-04 19:15 | 37.31231 | -6.40392 | 34040 ft | 496 kts | 75° |
| 2026-05-04 19:15 | 37.32756 | -6.31865 | 34023 ft | 500 kts | 76° |
| 2026-05-04 19:16 | 37.34278 | -6.23337 | 34017 ft | 499 kts | 76° |
| 2026-05-04 19:16 | 37.35786 | -6.14905 | 34018 ft | 497 kts | 76° |
| 2026-05-04 19:17 | 37.37306 | -6.06431 | 34015 ft | 498 kts | 76° |
| 2026-05-04 19:17 | 37.38827 | -5.97972 | 34015 ft | 499 kts | 76° |
| 2026-05-04 19:18 | 37.40369 | -5.89439 | 34017 ft | 499 kts | 76° |
| 2026-05-04 19:18 | 37.41907 | -5.80970 | 34017 ft | 500 kts | 76° |
| 2026-05-04 19:19 | 37.43884 | -5.72658 | 34013 ft | 497 kts | 63° |
| 2026-05-04 19:19 | 37.46735 | -5.64731 | 34022 ft | 497 kts | 63° |
| 2026-05-04 19:20 | 37.49537 | -5.56781 | 34028 ft | 497 kts | 63° |
| 2026-05-04 19:20 | 37.52306 | -5.48863 | 34024 ft | 497 kts | 63° |
| 2026-05-04 19:21 | 37.55079 | -5.40910 | 34027 ft | 497 kts | 63° |
| 2026-05-04 19:21 | 37.57861 | -5.32946 | 34019 ft | 497 kts | 64° |
| 2026-05-04 19:22 | 37.60648 | -5.24961 | 34012 ft | 496 kts | 63° |
| 2026-05-04 19:22 | 37.63408 | -5.16979 | 34012 ft | 497 kts | 64° |
| 2026-05-04 19:23 | 37.66135 | -5.09033 | 34006 ft | 498 kts | 64° |
| 2026-05-04 19:23 | 37.68886 | -5.01000 | 34007 ft | 498 kts | 64° |
| 2026-05-04 19:24 | 37.71624 | -4.93009 | 34003 ft | 499 kts | 64° |
| 2026-05-04 19:24 | 37.74377 | -4.84989 | 34000 ft | 499 kts | 64° |
| 2026-05-04 19:25 | 37.77131 | -4.76955 | 34003 ft | 499 kts | 64° |
| 2026-05-04 19:25 | 37.79858 | -4.68898 | 34006 ft | 499 kts | 64° |
| 2026-05-04 19:26 | 37.82576 | -4.60847 | 34009 ft | 499 kts | 64° |
| 2026-05-04 19:26 | 37.85244 | -4.52772 | 34005 ft | 500 kts | 67° |
| 2026-05-04 19:27 | 37.87336 | -4.44401 | 34007 ft | 501 kts | 76° |
| 2026-05-04 19:27 | 37.88971 | -4.35871 | 34010 ft | 502 kts | 75° |
| 2026-05-04 19:28 | 37.90666 | -4.27253 | 34001 ft | 503 kts | 76° |
| 2026-05-04 19:28 | 37.92362 | -4.18727 | 34001 ft | 503 kts | 75° |
| 2026-05-04 19:29 | 37.94080 | -4.10147 | 34002 ft | 504 kts | 74° |
| 2026-05-04 19:29 | 37.95812 | -4.01551 | 34000 ft | 503 kts | 74° |
| 2026-05-04 19:30 | 37.97536 | -3.93033 | 34006 ft | 503 kts | 74° |
| 2026-05-04 19:30 | 37.99276 | -3.84460 | 34013 ft | 503 kts | 74° |
| 2026-05-04 19:31 | 38.01020 | -3.75898 | 34013 ft | 504 kts | 74° |
| 2026-05-04 19:31 | 38.02786 | -3.67273 | 34007 ft | 504 kts | 74° |
| 2026-05-04 19:32 | 38.04539 | -3.58730 | 34021 ft | 503 kts | 74° |
| 2026-05-04 19:32 | 38.06308 | -3.50138 | 34029 ft | 503 kts | 73° |
| 2026-05-04 19:33 | 38.08055 | -3.41569 | 34028 ft | 504 kts | 75° |
| 2026-05-04 19:33 | 38.09720 | -3.32947 | 34027 ft | 504 kts | 76° |
| 2026-05-04 19:34 | 38.11365 | -3.24351 | 34019 ft | 503 kts | 76° |
| 2026-05-04 19:34 | 38.13012 | -3.15740 | 34020 ft | 504 kts | 76° |
| 2026-05-04 19:35 | 38.14669 | -3.07069 | 34016 ft | 506 kts | 76° |
| 2026-05-04 19:35 | 38.16333 | -2.98411 | 34024 ft | 506 kts | 75° |
| 2026-05-04 19:36 | 38.17989 | -2.89816 | 34026 ft | 506 kts | 76° |
| 2026-05-04 19:36 | 38.19673 | -2.81111 | 34031 ft | 506 kts | 75° |
| 2026-05-04 19:37 | 38.21357 | -2.72424 | 34037 ft | 507 kts | 75° |
| 2026-05-04 19:37 | 38.23053 | -2.63722 | 34042 ft | 507 kts | 75° |
| 2026-05-04 19:38 | 38.24746 | -2.55072 | 34050 ft | 507 kts | 75° |
| 2026-05-04 19:38 | 38.26454 | -2.46360 | 34051 ft | 507 kts | 75° |
| 2026-05-04 19:39 | 38.28119 | -2.37732 | 34046 ft | 507 kts | 76° |
| 2026-05-04 19:39 | 38.29754 | -2.28950 | 34024 ft | 508 kts | 76° |
| 2026-05-04 19:40 | 38.31375 | -2.20218 | 34022 ft | 510 kts | 76° |
| 2026-05-04 19:40 | 38.33010 | -2.11461 | 34023 ft | 509 kts | 76° |
| 2026-05-04 19:41 | 38.34635 | -2.02767 | 34021 ft | 509 kts | 76° |
| 2026-05-04 19:41 | 38.36527 | -1.94121 | 34007 ft | 506 kts | 63° |
| 2026-05-04 19:41 | 38.38223 | -1.90227 | 34010 ft | 500 kts | 51° |
| 2026-05-04 19:42 | 38.40390 | -1.86781 | 34029 ft | 498 kts | 46° |
| 2026-05-04 19:42 | 38.44721 | -1.79945 | 33997 ft | 500 kts | 47° |
| 2026-05-04 19:43 | 38.49027 | -1.72992 | 33984 ft | 498 kts | 48° |
| 2026-05-04 19:43 | 38.53291 | -1.66034 | 33994 ft | 499 kts | 48° |
| 2026-05-04 19:44 | 38.57563 | -1.59038 | 33997 ft | 499 kts | 48° |
| 2026-05-04 19:44 | 38.61811 | -1.52079 | 34005 ft | 498 kts | 48° |
| 2026-05-04 19:45 | 38.66047 | -1.45145 | 34003 ft | 498 kts | 48° |
| 2026-05-04 19:45 | 38.70310 | -1.38169 | 34003 ft | 499 kts | 49° |
| 2026-05-04 19:46 | 38.74565 | -1.31200 | 33992 ft | 498 kts | 49° |
| 2026-05-04 19:46 | 38.78793 | -1.24177 | 33984 ft | 498 kts | 50° |
| 2026-05-04 19:47 | 38.83002 | -1.17152 | 33996 ft | 497 kts | 49° |
| 2026-05-04 19:47 | 38.87205 | -1.10133 | 33992 ft | 498 kts | 50° |
| 2026-05-04 19:48 | 38.91414 | -1.03097 | 33993 ft | 497 kts | 49° |
| 2026-05-04 19:48 | 38.95621 | -0.96071 | 34001 ft | 497 kts | 49° |
| 2026-05-04 19:49 | 38.99825 | -0.89060 | 34002 ft | 498 kts | 49° |
| 2026-05-04 19:49 | 39.04037 | -0.82038 | 33992 ft | 498 kts | 49° |
| 2026-05-04 19:50 | 39.08530 | -0.75356 | 33989 ft | 493 kts | 38° |
| 2026-05-04 19:50 | 39.13810 | -0.69761 | 33970 ft | 490 kts | 34° |
| 2026-05-04 19:51 | 39.19088 | -0.64175 | 33958 ft | 491 kts | 35° |
| 2026-05-04 19:51 | 39.24306 | -0.58558 | 33941 ft | 492 kts | 40° |
| 2026-05-04 19:51 | 39.26414 | -0.55051 | 33973 ft | 497 kts | 59° |
| 2026-05-04 19:52 | 39.27726 | -0.50967 | 33963 ft | 499 kts | 76° |
| 2026-05-04 19:52 | 39.28163 | -0.46569 | 33967 ft | 495 kts | 94° |
| 2026-05-04 19:52 | 39.27693 | -0.42242 | 33961 ft | 488 kts | 111° |
| 2026-05-04 19:52 | 39.26378 | -0.38228 | 33973 ft | 479 kts | 122° |
| 2026-05-04 19:53 | 39.25012 | -0.34327 | 33935 ft | 483 kts | 118° |
| 2026-05-04 19:53 | 39.22692 | -0.26226 | 33928 ft | 484 kts | 114° |
| 2026-05-04 19:54 | 39.20667 | -0.17990 | 33932 ft | 485 kts | 112° |
| 2026-05-04 19:54 | 39.18765 | -0.09657 | 33929 ft | 486 kts | 111° |
| 2026-05-04 19:55 | 39.16919 | -0.01299 | 33924 ft | 487 kts | 111° |
| 2026-05-04 19:55 | 39.15100 | 0.07080 | 33900 ft | 489 kts | 110° |
| 2026-05-04 19:55 | 39.14191 | 0.11303 | 33335 ft | 491 kts | 110° |
| 2026-05-04 19:56 | 39.13289 | 0.15496 | 32742 ft | 488 kts | 110° |
| 2026-05-04 19:56 | 39.12386 | 0.19719 | 32136 ft | 486 kts | 110° |
| 2026-05-04 19:56 | 39.11503 | 0.23855 | 31548 ft | 483 kts | 110° |
| 2026-05-04 19:56 | 39.10625 | 0.27977 | 30961 ft | 480 kts | 110° |
| 2026-05-04 19:57 | 39.09745 | 0.32114 | 30382 ft | 477 kts | 110° |
| 2026-05-04 19:57 | 39.08884 | 0.36171 | 29774 ft | 474 kts | 110° |
| 2026-05-04 19:57 | 39.08021 | 0.40243 | 29156 ft | 471 kts | 110° |
| 2026-05-04 19:57 | 39.07167 | 0.44287 | 28545 ft | 467 kts | 110° |
| 2026-05-04 19:58 | 39.06320 | 0.48292 | 27942 ft | 464 kts | 110° |
| 2026-05-04 19:58 | 39.05487 | 0.52245 | 27358 ft | 461 kts | 110° |
| 2026-05-04 19:58 | 39.04652 | 0.56220 | 26783 ft | 457 kts | 110° |
| 2026-05-04 19:58 | 39.03822 | 0.60080 | 26219 ft | 452 kts | 111° |
| 2026-05-04 19:59 | 39.02965 | 0.63981 | 25672 ft | 448 kts | 110° |
| 2026-05-04 19:59 | 39.02072 | 0.67782 | 25197 ft | 438 kts | 116° |
| 2026-05-04 19:59 | 39.00899 | 0.71327 | 24634 ft | 429 kts | 124° |
| 2026-05-04 19:59 | 38.99486 | 0.74613 | 24064 ft | 424 kts | 125° |
| 2026-05-04 20:00 | 38.98070 | 0.77950 | 23479 ft | 421 kts | 125° |
| 2026-05-04 20:00 | 38.96695 | 0.81224 | 22924 ft | 418 kts | 125° |
| 2026-05-04 20:00 | 38.95324 | 0.84513 | 22372 ft | 415 kts | 124° |
| 2026-05-04 20:00 | 38.93988 | 0.87736 | 21838 ft | 412 kts | 124° |
| 2026-05-04 20:01 | 38.92643 | 0.90997 | 21306 ft | 409 kts | 124° |
| 2026-05-04 20:01 | 38.91331 | 0.94181 | 20802 ft | 405 kts | 124° |
| 2026-05-04 20:01 | 38.90047 | 0.97393 | 20323 ft | 403 kts | 120° |
| 2026-05-04 20:01 | 38.89079 | 1.00758 | 19879 ft | 404 kts | 111° |
| 2026-05-04 20:02 | 38.88377 | 1.04223 | 19345 ft | 403 kts | 110° |
| 2026-05-04 20:02 | 38.87669 | 1.07692 | 18814 ft | 402 kts | 110° |
| 2026-05-04 20:02 | 38.86958 | 1.11131 | 18277 ft | 400 kts | 110° |
| 2026-05-04 20:02 | 38.86241 | 1.14554 | 17754 ft | 398 kts | 110° |
| 2026-05-04 20:03 | 38.85526 | 1.17958 | 17240 ft | 396 kts | 109° |
| 2026-05-04 20:03 | 38.84811 | 1.21354 | 16717 ft | 394 kts | 109° |
| 2026-05-04 20:03 | 38.84103 | 1.24703 | 16194 ft | 391 kts | 109° |
| 2026-05-04 20:03 | 38.83394 | 1.28048 | 15694 ft | 389 kts | 109° |
| 2026-05-04 20:04 | 38.82692 | 1.31364 | 15182 ft | 386 kts | 109° |
| 2026-05-04 20:04 | 38.81994 | 1.34663 | 14673 ft | 384 kts | 109° |
| 2026-05-04 20:04 | 38.81300 | 1.37950 | 14167 ft | 381 kts | 109° |
| 2026-05-04 20:04 | 38.80700 | 1.41240 | 13644 ft | 382 kts | 98° |
| 2026-05-04 20:05 | 38.80839 | 1.44642 | 13277 ft | 379 kts | 80° |
| 2026-05-04 20:05 | 38.81722 | 1.47776 | 12865 ft | 375 kts | 60° |
| 2026-05-04 20:05 | 38.83031 | 1.50641 | 12468 ft | 370 kts | 59° |
| 2026-05-04 20:05 | 38.84300 | 1.53479 | 12044 ft | 366 kts | 60° |
| 2026-05-04 20:06 | 38.85524 | 1.56275 | 11616 ft | 359 kts | 60° |
| 2026-05-04 20:06 | 38.86704 | 1.59052 | 11382 ft | 345 kts | 61° |
| 2026-05-04 20:06 | 38.87826 | 1.61708 | 11148 ft | 334 kts | 61° |
| 2026-05-04 20:06 | 38.88905 | 1.64267 | 10917 ft | 323 kts | 61° |
| 2026-05-04 20:07 | 38.89963 | 1.66773 | 10699 ft | 313 kts | 62° |
| 2026-05-04 20:07 | 38.90980 | 1.69185 | 10480 ft | 304 kts | 62° |
| 2026-05-04 20:07 | 38.91969 | 1.71531 | 10294 ft | 294 kts | 62° |
| 2026-05-04 20:07 | 38.92904 | 1.73794 | 10046 ft | 288 kts | 63° |
| 2026-05-04 20:08 | 38.93838 | 1.76075 | 9739 ft | 284 kts | 63° |
| 2026-05-04 20:08 | 38.94743 | 1.78290 | 9453 ft | 280 kts | 63° |
| 2026-05-04 20:08 | 38.95638 | 1.80480 | 9203 ft | 275 kts | 63° |
| 2026-05-04 20:08 | 38.96524 | 1.82657 | 8834 ft | 275 kts | 63° |
| 2026-05-04 20:09 | 38.97498 | 1.84761 | 8459 ft | 274 kts | 44° |
| 2026-05-04 20:09 | 38.99039 | 1.86068 | 8171 ft | 264 kts | 14° |
| 2026-05-04 20:09 | 39.00801 | 1.86262 | 7944 ft | 248 kts | 344° |
| 2026-05-04 20:09 | 39.02344 | 1.85504 | 7726 ft | 235 kts | 322° |
| 2026-05-04 20:10 | 39.03689 | 1.84346 | 7503 ft | 229 kts | 315° |
| 2026-05-04 20:10 | 39.04710 | 1.82802 | 7283 ft | 223 kts | 296° |
| 2026-05-04 20:10 | 39.05257 | 1.80962 | 7054 ft | 222 kts | 278° |
| 2026-05-04 20:10 | 39.05270 | 1.79002 | 6787 ft | 222 kts | 256° |
| 2026-05-04 20:11 | 39.04633 | 1.77216 | 6542 ft | 222 kts | 236° |
| 2026-05-04 20:11 | 39.03804 | 1.75535 | 6298 ft | 223 kts | 239° |
| 2026-05-04 20:11 | 39.03003 | 1.73819 | 6045 ft | 224 kts | 241° |
| 2026-05-04 20:11 | 39.02215 | 1.72106 | 5762 ft | 224 kts | 240° |
| 2026-05-04 20:12 | 39.01416 | 1.70366 | 5471 ft | 225 kts | 240° |
| 2026-05-04 20:12 | 39.00625 | 1.68642 | 5183 ft | 225 kts | 240° |
| 2026-05-04 20:12 | 38.99827 | 1.66903 | 4892 ft | 226 kts | 240° |
| 2026-05-04 20:12 | 38.99030 | 1.65165 | 4593 ft | 226 kts | 240° |
| 2026-05-04 20:13 | 38.98231 | 1.63426 | 4296 ft | 227 kts | 240° |
| 2026-05-04 20:13 | 38.97439 | 1.61699 | 3995 ft | 227 kts | 240° |
| 2026-05-04 20:13 | 38.96626 | 1.59928 | 3690 ft | 228 kts | 240° |
| 2026-05-04 20:13 | 38.95879 | 1.58160 | 3418 ft | 227 kts | 243° |
| 2026-05-04 20:14 | 38.95154 | 1.56363 | 3102 ft | 230 kts | 243° |
| 2026-05-04 20:14 | 38.94427 | 1.54574 | 2941 ft | 217 kts | 243° |
| 2026-05-04 20:14 | 38.93748 | 1.52911 | 2611 ft | 198 kts | 242° |
| 2026-05-04 20:14 | 38.93145 | 1.51444 | 2301 ft | 178 kts | 242° |
| 2026-05-04 20:15 | 38.92591 | 1.50103 | 2009 ft | 163 kts | 241° |
| 2026-05-04 20:15 | 38.92080 | 1.48864 | 1759 ft | 149 kts | 241° |
| 2026-05-04 20:15 | 38.91634 | 1.47781 | 1573 ft | 129 kts | 240° |
| 2026-05-04 20:15 | 38.91239 | 1.46823 | 1349 ft | 116 kts | 240° |
| 2026-05-04 20:16 | 38.90871 | 1.45943 | 1168 ft | 110 kts | 241° |
| 2026-05-04 20:16 | 38.90507 | 1.45059 | 1057 ft | 114 kts | 239° |
| 2026-05-04 20:16 | 38.90121 | 1.44127 | 953 ft | 121 kts | 239° |
| 2026-05-04 20:16 | 38.89703 | 1.43134 | 856 ft | 136 kts | 242° |
| 2026-05-04 20:17 | 38.89281 | 1.42104 | 646 ft | 126 kts | 239° |
| 2026-05-04 20:17 | 38.88880 | 1.41146 | 451 ft | 119 kts | 240° |
| 2026-05-04 20:17 | 38.88481 | 1.40201 | 294 ft | 124 kts | 241° |
| 2026-05-04 20:17 | 38.88069 | 1.39203 | 141 ft | 124 kts | 241° |
| 2026-05-04 20:18 | 38.87672 | 1.38259 | 30 ft | 115 kts | 242° |
| 2026-05-04 20:18 | 38.87369 | 1.37525 | 35 ft | 69 kts | 243° |
| 2026-05-04 20:18 | 38.87143 | 1.36980 | 33 ft | 66 kts | 243° |
| 2026-05-04 20:18 | 38.86972 | 1.36577 | 29 ft | 41 kts | 241° |
| 2026-05-04 20:19 | 38.86880 | 1.36344 | 26 ft | 17 kts | 251° |
| 2026-05-04 20:19 | 38.86937 | 1.36244 | 25 ft | 13 kts | 333° |